createdAt,value
2017-01-30T00:00:31.390Z,0
2017-01-30T00:01:36.587Z,0
2017-01-30T00:02:41.762Z,0
2017-01-30T00:03:46.988Z,0
2017-01-30T00:04:52.164Z,0
2017-01-30T00:05:58.332Z,0
2017-01-30T00:07:03.537Z,0
2017-01-30T00:08:09.739Z,0
2017-01-30T00:09:15.910Z,0
2017-01-30T00:10:22.088Z,0
2017-01-30T00:11:27.365Z,0
2017-01-30T00:12:32.571Z,0
2017-01-30T00:13:37.742Z,0
2017-01-30T00:14:42.918Z,0
2017-01-30T00:15:47.149Z,0
2017-01-30T00:16:53.331Z,0
2017-01-30T00:17:59.556Z,0
2017-01-30T00:19:04.704Z,0
2017-01-30T00:20:09.898Z,0
2017-01-30T00:21:16.173Z,0
2017-01-30T00:22:21.367Z,0
2017-01-30T00:23:26.572Z,0
2017-01-30T00:24:32.752Z,0
2017-01-30T00:25:37.952Z,0
2017-01-30T00:26:43.126Z,0
2017-01-30T00:27:48.361Z,0
2017-01-30T00:28:53.502Z,0
2017-01-30T00:29:59.664Z,0
2017-01-30T00:31:04.863Z,0
2017-01-30T00:32:09.065Z,0
2017-01-30T00:33:14.296Z,0
2017-01-30T00:34:20.468Z,0
2017-01-30T00:35:25.673Z,0
2017-01-30T00:36:29.908Z,0
2017-01-30T00:37:35.103Z,0
2017-01-30T00:38:40.276Z,0
2017-01-30T00:39:46.479Z,0
2017-01-30T00:40:51.681Z,0
2017-01-30T00:41:56.940Z,0
2017-01-30T00:43:01.265Z,0
2017-01-30T00:44:06.496Z,0
2017-01-30T00:45:10.687Z,0
2017-01-30T00:46:14.924Z,0
2017-01-30T00:47:21.091Z,0
2017-01-30T00:48:25.316Z,0
2017-01-30T00:49:30.491Z,0
2017-01-30T00:50:34.692Z,0
2017-01-30T00:51:40.858Z,0
2017-01-30T00:53:52.261Z,0
2017-01-30T00:54:56.461Z,0
2017-01-30T00:56:02.628Z,0
2017-01-30T00:57:08.791Z,0
2017-01-30T00:58:13.959Z,0
2017-01-30T00:59:20.128Z,0
2017-01-30T01:00:26.292Z,0
2017-01-30T01:01:32.471Z,0
2017-01-30T01:02:38.693Z,0
2017-01-30T01:03:43.933Z,0
2017-01-30T01:04:50.076Z,0
2017-01-30T01:05:56.217Z,0
2017-01-30T01:07:02.381Z,0
2017-01-30T01:08:08.642Z,0
2017-01-30T01:09:14.820Z,0
2017-01-30T01:10:20.981Z,0
2017-01-30T01:11:26.168Z,0
2017-01-30T01:12:30.373Z,0
2017-01-30T01:13:36.540Z,0
2017-01-30T01:14:40.822Z,0
2017-01-30T01:15:45.024Z,0
2017-01-30T01:16:49.408Z,0
2017-01-30T01:17:53.534Z,0
2017-01-30T01:18:59.699Z,0
2017-01-30T01:20:03.902Z,0
2017-01-30T01:21:09.103Z,0
2017-01-30T01:22:13.368Z,0
2017-01-30T01:23:17.569Z,0
2017-01-30T01:24:22.775Z,0
2017-01-30T01:25:27.973Z,0
2017-01-30T01:26:33.179Z,0
2017-01-30T01:27:38.387Z,0
2017-01-30T01:28:42.633Z,0
2017-01-30T01:29:48.803Z,0
2017-01-30T01:30:53.976Z,0
2017-01-30T01:31:59.153Z,0
2017-01-30T01:33:04.364Z,0
2017-01-30T01:34:08.600Z,0
2017-01-30T01:35:13.912Z,0
2017-01-30T01:37:26.238Z,0
2017-01-30T01:38:31.493Z,0
2017-01-30T01:39:37.695Z,0
2017-01-30T01:40:42.920Z,0
2017-01-30T01:41:47.162Z,0
2017-01-30T01:42:52.356Z,0
2017-01-30T01:43:58.521Z,0
2017-01-30T01:45:03.726Z,0
2017-01-30T01:46:09.897Z,0
2017-01-30T01:47:16.072Z,0
2017-01-30T01:48:21.244Z,0
2017-01-30T01:49:26.423Z,0
2017-01-30T01:50:32.585Z,0
2017-01-30T01:51:38.756Z,0
2017-01-30T01:52:44.916Z,0
2017-01-30T01:53:51.131Z,0
2017-01-30T01:54:57.305Z,0
2017-01-30T01:56:02.500Z,0
2017-01-30T01:57:07.701Z,0
2017-01-30T01:58:12.937Z,0
2017-01-30T01:59:17.138Z,0
2017-01-30T02:00:21.357Z,0
2017-01-30T02:01:27.524Z,0
2017-01-30T02:02:32.719Z,0
2017-01-30T02:03:38.893Z,0
2017-01-30T02:04:44.104Z,0
2017-01-30T02:05:48.334Z,0
2017-01-30T02:06:54.503Z,0
2017-01-30T02:08:00.683Z,0
2017-01-30T02:09:06.851Z,0
2017-01-30T02:10:13.006Z,0
2017-01-30T02:11:17.250Z,0
2017-01-30T02:12:23.412Z,0
2017-01-30T02:13:28.632Z,0
2017-01-30T02:14:34.815Z,0
2017-01-30T02:15:40.015Z,0
2017-01-30T02:16:45.217Z,0
2017-01-30T02:17:49.446Z,0
2017-01-30T02:18:53.675Z,0
2017-01-30T02:19:57.902Z,0
2017-01-30T02:21:03.100Z,0
2017-01-30T02:22:09.274Z,0
2017-01-30T02:23:14.461Z,0
2017-01-30T02:24:19.704Z,0
2017-01-30T02:25:24.909Z,0
2017-01-30T02:26:29.115Z,0
2017-01-30T02:27:35.288Z,0
2017-01-30T02:28:41.453Z,0
2017-01-30T02:29:45.664Z,0
2017-01-30T02:30:50.862Z,0
2017-01-30T02:31:57.135Z,0
2017-01-30T02:33:02.365Z,0
2017-01-30T02:34:07.591Z,0
2017-01-30T02:35:13.758Z,0
2017-01-30T02:36:18.948Z,0
2017-01-30T02:37:25.118Z,0
2017-01-30T02:38:31.282Z,0
2017-01-30T02:39:36.489Z,0
2017-01-30T02:40:40.931Z,0
2017-01-30T02:41:47.194Z,0
2017-01-30T02:42:53.455Z,0
2017-01-30T02:43:58.625Z,0
2017-01-30T02:45:03.825Z,0
2017-01-30T02:46:08.994Z,0
2017-01-30T02:47:14.181Z,0
2017-01-30T02:48:20.350Z,0
2017-01-30T02:49:25.691Z,0
2017-01-30T02:50:31.873Z,0
2017-01-30T02:51:37.060Z,0
2017-01-30T02:52:40.296Z,0
2017-01-30T02:53:46.449Z,0
2017-01-30T02:54:49.712Z,0
2017-01-30T02:55:55.918Z,0
2017-01-30T02:57:01.101Z,0
2017-01-30T02:58:06.306Z,0
2017-01-30T02:59:12.481Z,0
2017-01-30T03:00:18.640Z,0
2017-01-30T03:01:23.808Z,0
2017-01-30T03:02:30.070Z,0
2017-01-30T03:03:35.180Z,0
2017-01-30T03:04:41.351Z,0
2017-01-30T03:05:46.552Z,0
2017-01-30T03:06:50.788Z,0
2017-01-30T03:07:56.084Z,0
2017-01-30T03:09:02.333Z,0
2017-01-30T03:10:08.502Z,0
2017-01-30T03:11:13.796Z,0
2017-01-30T03:12:19.961Z,0
2017-01-30T03:13:25.157Z,0
2017-01-30T03:14:29.360Z,0
2017-01-30T03:15:34.559Z,0
2017-01-30T03:16:40.722Z,0
2017-01-30T03:17:46.047Z,0
2017-01-30T03:18:51.217Z,0
2017-01-30T03:19:54.456Z,0
2017-01-30T03:20:59.655Z,0
2017-01-30T03:22:04.850Z,0
2017-01-30T03:23:07.111Z,0
2017-01-30T03:24:11.316Z,0
2017-01-30T03:25:15.552Z,0
2017-01-30T03:26:19.780Z,0
2017-01-30T03:27:24.987Z,0
2017-01-30T03:28:29.219Z,0
2017-01-30T03:29:33.580Z,0
2017-01-30T03:30:37.795Z,0
2017-01-30T03:31:43.937Z,0
2017-01-30T03:32:50.160Z,0
2017-01-30T03:33:56.317Z,0
2017-01-30T03:35:01.577Z,0
2017-01-30T03:36:06.738Z,0
2017-01-30T03:38:18.107Z,0
2017-01-30T03:39:24.282Z,0
2017-01-30T03:40:29.477Z,0
2017-01-30T03:41:33.683Z,0
2017-01-30T03:42:39.877Z,0
2017-01-30T03:43:46.030Z,0
2017-01-30T03:45:57.349Z,0
2017-01-30T03:47:02.546Z,0
2017-01-30T03:48:08.716Z,0
2017-01-30T03:49:14.879Z,0
2017-01-30T03:50:21.068Z,0
2017-01-30T03:51:25.295Z,0
2017-01-30T03:52:31.461Z,0
2017-01-30T03:53:37.633Z,0
2017-01-30T03:54:42.868Z,0
2017-01-30T03:55:49.006Z,0
2017-01-30T03:56:54.198Z,0
2017-01-30T03:58:00.370Z,0
2017-01-30T03:59:04.607Z,0
2017-01-30T04:00:09.798Z,0
2017-01-30T04:01:16.061Z,0
2017-01-30T04:02:22.344Z,0
2017-01-30T04:03:27.517Z,0
2017-01-30T04:04:31.689Z,0
2017-01-30T04:05:37.860Z,0
2017-01-30T04:06:42.090Z,0
2017-01-30T04:07:47.273Z,0
2017-01-30T04:08:53.534Z,0
2017-01-30T04:09:57.768Z,0
2017-01-30T04:11:01.995Z,0
2017-01-30T04:12:07.233Z,0
2017-01-30T04:13:12.434Z,0
2017-01-30T04:14:17.608Z,0
2017-01-30T04:15:22.805Z,0
2017-01-30T04:16:29.001Z,0
2017-01-30T04:17:35.145Z,0
2017-01-30T04:18:41.318Z,0
2017-01-30T04:19:46.522Z,0
2017-01-30T04:20:51.706Z,0
2017-01-30T04:21:56.900Z,0
2017-01-30T04:23:03.058Z,0
2017-01-30T04:24:08.279Z,0
2017-01-30T04:25:12.528Z,0
2017-01-30T04:26:17.721Z,0
2017-01-30T04:27:23.900Z,0
2017-01-30T04:28:30.106Z,0
2017-01-30T04:29:33.345Z,0
2017-01-30T04:30:39.508Z,0
2017-01-30T04:31:43.743Z,0
2017-01-30T04:32:49.907Z,0
2017-01-30T04:33:56.076Z,0
2017-01-30T04:35:02.316Z,0
2017-01-30T04:36:07.435Z,0
2017-01-30T04:37:12.662Z,0
2017-01-30T04:38:17.836Z,0
2017-01-30T04:39:23.215Z,0
2017-01-30T04:40:29.416Z,0
2017-01-30T04:41:33.627Z,0
2017-01-30T04:42:38.817Z,0
2017-01-30T04:43:44.010Z,0
2017-01-30T04:44:49.182Z,0
2017-01-30T04:45:54.391Z,0
2017-01-30T04:46:58.621Z,0
2017-01-30T04:48:03.854Z,0
2017-01-30T04:49:10.006Z,0
2017-01-30T04:50:15.197Z,0
2017-01-30T04:51:21.362Z,0
2017-01-30T04:52:26.521Z,0
2017-01-30T04:53:31.725Z,0
2017-01-30T04:54:36.915Z,0
2017-01-30T04:55:43.084Z,0
2017-01-30T04:56:47.334Z,0
2017-01-30T04:57:52.537Z,0
2017-01-30T04:58:58.732Z,0
2017-01-30T05:00:04.907Z,0
2017-01-30T05:01:09.119Z,0
2017-01-30T05:02:15.326Z,0
2017-01-30T05:03:21.490Z,0
2017-01-30T05:04:26.724Z,0
2017-01-30T05:05:32.930Z,0
2017-01-30T05:06:39.061Z,0
2017-01-30T05:07:45.219Z,0
2017-01-30T05:08:49.449Z,0
2017-01-30T05:09:52.678Z,0
2017-01-30T05:10:57.885Z,0
2017-01-30T05:12:04.050Z,0
2017-01-30T05:13:09.240Z,0
2017-01-30T05:14:15.457Z,0
2017-01-30T05:15:19.643Z,0
2017-01-30T05:16:24.858Z,0
2017-01-30T05:17:31.026Z,0
2017-01-30T05:18:37.190Z,0
2017-01-30T05:19:43.356Z,0
2017-01-30T05:20:48.560Z,0
2017-01-30T05:21:53.755Z,0
2017-01-30T05:22:59.993Z,0
2017-01-30T05:24:05.182Z,0
2017-01-30T05:25:08.415Z,0
2017-01-30T05:26:14.591Z,0
2017-01-30T05:27:16.852Z,0
2017-01-30T05:28:23.021Z,0
2017-01-30T05:29:26.421Z,0
2017-01-30T05:30:31.618Z,0
2017-01-30T05:31:35.846Z,0
2017-01-30T05:32:41.043Z,0
2017-01-30T05:33:46.292Z,0
2017-01-30T05:34:52.421Z,0
2017-01-30T05:35:58.640Z,0
2017-01-30T05:37:03.829Z,0
2017-01-30T05:38:09.997Z,0
2017-01-30T05:39:13.263Z,0
2017-01-30T05:40:18.467Z,0
2017-01-30T05:41:23.756Z,0
2017-01-30T05:42:28.946Z,0
2017-01-30T05:43:34.107Z,0
2017-01-30T05:44:40.286Z,0
2017-01-30T05:45:46.445Z,0
2017-01-30T05:46:52.675Z,0
2017-01-30T05:47:58.839Z,0
2017-01-30T05:49:05.019Z,0
2017-01-30T05:50:10.219Z,0
2017-01-30T05:51:16.380Z,0
2017-01-30T05:52:22.544Z,0
2017-01-30T05:53:26.849Z,0
2017-01-30T05:54:33.014Z,0
2017-01-30T05:55:39.305Z,0
2017-01-30T05:56:45.462Z,0
2017-01-30T05:57:50.634Z,0
2017-01-30T05:58:55.804Z,0
2017-01-30T06:00:02.021Z,0
2017-01-30T06:01:07.208Z,0
2017-01-30T06:02:12.432Z,0
2017-01-30T06:03:17.642Z,0
2017-01-30T06:04:20.876Z,0
2017-01-30T06:05:27.116Z,0
2017-01-30T06:06:33.288Z,0
2017-01-30T06:07:39.466Z,0
2017-01-30T06:08:44.635Z,0
2017-01-30T06:09:49.826Z,0
2017-01-30T06:10:56.003Z,0
2017-01-30T06:12:01.264Z,0
2017-01-30T06:13:06.428Z,0
2017-01-30T06:14:11.644Z,0
2017-01-30T06:15:17.916Z,0
2017-01-30T06:16:23.148Z,0
2017-01-30T06:17:29.287Z,0
2017-01-30T06:18:32.523Z,0
2017-01-30T06:19:37.756Z,0
2017-01-30T06:20:42.938Z,0
2017-01-30T06:21:47.178Z,0
2017-01-30T06:22:53.378Z,0
2017-01-30T06:23:58.554Z,0
2017-01-30T06:25:04.719Z,0
2017-01-30T06:26:08.922Z,0
2017-01-30T06:27:14.178Z,0
2017-01-30T06:28:19.378Z,0
2017-01-30T06:29:24.532Z,0
2017-01-30T06:30:29.732Z,0
2017-01-30T06:31:34.939Z,0
2017-01-30T06:32:40.144Z,0
2017-01-30T06:33:46.356Z,0
2017-01-30T06:34:51.512Z,0
2017-01-30T06:35:57.675Z,0
2017-01-30T06:37:00.933Z,0
2017-01-30T06:38:07.102Z,0
2017-01-30T06:39:11.338Z,0
2017-01-30T06:40:17.505Z,0
2017-01-30T06:41:21.773Z,0
2017-01-30T06:42:26.006Z,0
2017-01-30T06:43:31.207Z,0
2017-01-30T06:44:36.409Z,0
2017-01-30T06:45:42.625Z,0
2017-01-30T06:46:47.925Z,0
2017-01-30T06:47:53.132Z,0
2017-01-30T06:48:59.312Z,0
2017-01-30T06:50:05.473Z,0
2017-01-30T06:51:10.670Z,0
2017-01-30T06:52:14.910Z,0
2017-01-30T06:53:21.119Z,0
2017-01-30T06:54:26.290Z,0
2017-01-30T06:55:32.454Z,0
2017-01-30T06:56:38.714Z,0
2017-01-30T06:57:43.912Z,0
2017-01-30T06:58:50.082Z,0
2017-01-30T06:59:56.254Z,0
2017-01-30T07:01:01.492Z,0
2017-01-30T07:02:06.592Z,0
2017-01-30T07:03:12.762Z,0
2017-01-30T07:04:18.925Z,0
2017-01-30T07:05:25.106Z,0
2017-01-30T07:06:31.279Z,0
2017-01-30T07:07:36.449Z,0
2017-01-30T07:08:42.625Z,0
2017-01-30T07:09:48.789Z,0
2017-01-30T07:10:54.009Z,0
2017-01-30T07:11:59.180Z,0
2017-01-30T07:13:05.347Z,0
2017-01-30T07:14:10.569Z,0
2017-01-30T07:15:16.738Z,0
2017-01-30T07:16:22.934Z,0
2017-01-30T07:17:29.080Z,0
2017-01-30T07:18:33.342Z,0
2017-01-30T07:19:39.628Z,0
2017-01-30T07:20:43.760Z,0
2017-01-30T07:21:48.985Z,0
2017-01-30T07:22:54.192Z,5
2017-01-30T07:24:00.310Z,5
2017-01-30T07:25:06.548Z,5
2017-01-30T07:26:11.771Z,5
2017-01-30T07:27:17.938Z,5
2017-01-30T07:28:24.132Z,5
2017-01-30T07:29:30.369Z,5
2017-01-30T07:30:35.571Z,5
2017-01-30T07:31:40.769Z,5
2017-01-30T07:32:46.024Z,10
2017-01-30T07:33:50.213Z,10
2017-01-30T07:34:56.427Z,10
2017-01-30T07:36:02.567Z,10
2017-01-30T07:37:07.769Z,10
2017-01-30T07:38:13.943Z,10
2017-01-30T07:39:17.172Z,10
2017-01-30T07:40:22.376Z,10
2017-01-30T07:41:25.636Z,10
2017-01-30T07:42:31.808Z,5
2017-01-30T07:43:37.966Z,5
2017-01-30T07:44:43.138Z,5
2017-01-30T07:45:49.299Z,5
2017-01-30T07:46:55.494Z,5
2017-01-30T07:47:58.729Z,5
2017-01-30T07:49:02.960Z,10
2017-01-30T07:50:08.159Z,10
2017-01-30T07:51:13.358Z,10
2017-01-30T07:52:18.561Z,10
2017-01-30T07:53:23.762Z,10
2017-01-30T07:54:29.927Z,10
2017-01-30T07:55:36.091Z,10
2017-01-30T07:56:41.325Z,15
2017-01-30T07:57:47.493Z,15
2017-01-30T07:58:52.702Z,15
2017-01-30T07:59:57.940Z,15
2017-01-30T08:01:03.099Z,15
2017-01-30T08:02:07.326Z,15
2017-01-30T08:03:12.531Z,15
2017-01-30T08:04:16.780Z,15
2017-01-30T08:05:21.959Z,15
2017-01-30T08:06:27.368Z,15
2017-01-30T08:07:31.594Z,15
2017-01-30T08:08:35.834Z,15
2017-01-30T08:09:40.048Z,20
2017-01-30T08:10:45.276Z,25
2017-01-30T08:11:50.579Z,20
2017-01-30T08:12:56.727Z,15
2017-01-30T08:14:00.953Z,20
2017-01-30T08:15:07.126Z,20
2017-01-30T08:16:12.334Z,25
2017-01-30T08:17:16.564Z,25
2017-01-30T08:18:21.803Z,25
2017-01-30T08:19:28.072Z,25
2017-01-30T08:20:32.199Z,25
2017-01-30T08:21:37.395Z,25
2017-01-30T08:22:41.594Z,30
2017-01-30T08:23:46.795Z,40
2017-01-30T08:24:53.045Z,35
2017-01-30T08:25:59.219Z,30
2017-01-30T08:27:05.543Z,40
2017-01-30T08:28:10.711Z,30
2017-01-30T08:29:15.925Z,25
2017-01-30T08:30:22.102Z,25
2017-01-30T08:31:27.317Z,20
2017-01-30T08:32:32.529Z,20
2017-01-30T08:33:38.689Z,20
2017-01-30T08:34:43.903Z,25
2017-01-30T08:35:49.075Z,25
2017-01-30T08:36:54.253Z,25
2017-01-30T08:38:00.419Z,25
2017-01-30T08:39:06.625Z,25
2017-01-30T08:40:11.823Z,25
2017-01-30T08:41:16.368Z,25
2017-01-30T08:42:21.481Z,25
2017-01-30T08:43:25.688Z,25
2017-01-30T08:44:30.895Z,25
2017-01-30T08:45:35.127Z,30
2017-01-30T08:46:41.352Z,30
2017-01-30T08:48:51.734Z,35
2017-01-30T08:49:57.899Z,45
2017-01-30T08:51:03.108Z,45
2017-01-30T08:52:07.387Z,50
2017-01-30T08:53:11.588Z,65
2017-01-30T08:54:15.788Z,65
2017-01-30T08:55:18.049Z,65
2017-01-30T08:56:24.289Z,65
2017-01-30T08:57:29.487Z,60
2017-01-30T08:58:35.665Z,80
2017-01-30T08:59:40.852Z,90
2017-01-30T09:00:47.031Z,90
2017-01-30T09:01:53.195Z,100
2017-01-30T09:02:58.490Z,100
2017-01-30T09:04:04.658Z,95
2017-01-30T09:05:09.865Z,100
2017-01-30T09:06:16.027Z,85
2017-01-30T09:07:22.220Z,75
2017-01-30T09:08:27.409Z,80
2017-01-30T09:09:33.575Z,80
2017-01-30T09:10:38.772Z,85
2017-01-30T09:11:43.947Z,75
2017-01-30T09:12:49.159Z,90
2017-01-30T09:13:55.300Z,90
2017-01-30T09:14:59.500Z,100
2017-01-30T09:16:03.740Z,95
2017-01-30T09:17:08.917Z,85
2017-01-30T09:18:15.081Z,90
2017-01-30T09:19:20.287Z,95
2017-01-30T09:20:25.498Z,115
2017-01-30T09:21:31.658Z,130
2017-01-30T09:22:37.824Z,135
2017-01-30T09:23:43.041Z,120
2017-01-30T09:24:49.294Z,100
2017-01-30T09:25:54.496Z,100
2017-01-30T09:26:59.690Z,95
2017-01-30T09:28:04.887Z,105
2017-01-30T09:29:10.087Z,90
2017-01-30T09:30:16.253Z,90
2017-01-30T09:31:21.430Z,100
2017-01-30T09:32:27.753Z,105
2017-01-30T09:33:32.839Z,110
2017-01-30T09:34:37.071Z,125
2017-01-30T09:35:43.231Z,130
2017-01-30T09:36:48.422Z,130
2017-01-30T09:37:53.625Z,105
2017-01-30T09:38:58.829Z,105
2017-01-30T09:40:03.300Z,105
2017-01-30T09:41:06.537Z,95
2017-01-30T09:42:11.749Z,110
2017-01-30T09:43:17.921Z,100
2017-01-30T09:44:23.090Z,105
2017-01-30T09:45:28.293Z,115
2017-01-30T09:46:33.503Z,110
2017-01-30T09:47:38.707Z,135
2017-01-30T09:48:42.914Z,100
2017-01-30T09:49:48.115Z,105
2017-01-30T09:50:54.285Z,100
2017-01-30T09:51:59.509Z,120
2017-01-30T09:53:05.671Z,110
2017-01-30T09:54:11.843Z,105
2017-01-30T09:55:17.030Z,105
2017-01-30T09:57:26.476Z,100
2017-01-30T09:58:31.667Z,115
2017-01-30T09:59:36.861Z,120
2017-01-30T10:00:43.062Z,115
2017-01-30T10:01:49.183Z,115
2017-01-30T10:02:55.334Z,135
2017-01-30T10:04:00.504Z,125
2017-01-30T10:05:04.719Z,120
2017-01-30T10:06:09.899Z,125
2017-01-30T10:07:16.048Z,115
2017-01-30T10:08:21.238Z,115
2017-01-30T10:09:26.517Z,120
2017-01-30T10:10:30.709Z,145
2017-01-30T10:11:35.898Z,135
2017-01-30T10:12:41.142Z,145
2017-01-30T10:13:47.289Z,160
2017-01-30T10:14:52.472Z,140
2017-01-30T10:15:55.695Z,135
2017-01-30T10:17:00.917Z,140
2017-01-30T10:18:05.135Z,140
2017-01-30T10:19:11.250Z,145
2017-01-30T10:20:17.402Z,130
2017-01-30T10:21:23.567Z,130
2017-01-30T10:22:28.760Z,115
2017-01-30T10:23:33.947Z,130
2017-01-30T10:24:40.104Z,110
2017-01-30T10:25:46.321Z,120
2017-01-30T10:26:52.474Z,115
2017-01-30T10:27:58.626Z,100
2017-01-30T10:29:03.803Z,95
2017-01-30T10:30:09.944Z,95
2017-01-30T10:31:14.137Z,100
2017-01-30T10:32:20.290Z,105
2017-01-30T10:33:26.476Z,100
2017-01-30T10:34:31.763Z,95
2017-01-30T10:35:36.000Z,95
2017-01-30T10:36:39.223Z,100
2017-01-30T10:37:45.379Z,105
2017-01-30T10:38:51.522Z,115
2017-01-30T10:39:56.692Z,105
2017-01-30T10:41:02.850Z,120
2017-01-30T10:42:09.001Z,140
2017-01-30T10:43:14.190Z,150
2017-01-30T10:44:20.343Z,190
2017-01-30T10:45:25.538Z,150
2017-01-30T10:46:30.729Z,160
2017-01-30T10:47:36.848Z,155
2017-01-30T10:48:42.994Z,140
2017-01-30T10:49:47.184Z,130
2017-01-30T10:50:53.340Z,105
2017-01-30T10:51:58.533Z,90
2017-01-30T10:53:04.659Z,85
2017-01-30T10:54:09.838Z,80
2017-01-30T10:55:14.045Z,80
2017-01-30T10:56:20.441Z,100
2017-01-30T10:57:23.668Z,105
2017-01-30T10:58:29.813Z,100
2017-01-30T10:59:34.999Z,95
2017-01-30T11:00:40.180Z,105
2017-01-30T11:01:46.398Z,135
2017-01-30T11:02:51.573Z,130
2017-01-30T11:03:55.858Z,150
2017-01-30T11:05:02.027Z,135
2017-01-30T11:06:07.203Z,150
2017-01-30T11:07:12.423Z,120
2017-01-30T11:08:16.665Z,135
2017-01-30T11:09:20.893Z,175
2017-01-30T11:10:27.135Z,145
2017-01-30T11:11:32.339Z,170
2017-01-30T11:12:38.552Z,150
2017-01-30T11:13:43.725Z,175
2017-01-30T11:14:47.956Z,185
2017-01-30T11:15:53.160Z,190
2017-01-30T11:16:58.359Z,175
2017-01-30T11:18:04.527Z,155
2017-01-30T11:19:10.734Z,115
2017-01-30T11:20:15.900Z,115
2017-01-30T11:21:21.081Z,95
2017-01-30T11:22:25.290Z,90
2017-01-30T11:23:28.630Z,85
2017-01-30T11:24:31.867Z,80
2017-01-30T11:25:38.048Z,85
2017-01-30T11:26:44.361Z,70
2017-01-30T11:27:50.479Z,60
2017-01-30T11:28:55.697Z,65
2017-01-30T11:30:00.868Z,75
2017-01-30T11:31:05.071Z,75
2017-01-30T11:32:11.269Z,90
2017-01-30T11:33:16.478Z,85
2017-01-30T11:34:22.631Z,95
2017-01-30T11:35:27.830Z,95
2017-01-30T11:36:33.009Z,110
2017-01-30T11:37:37.216Z,115
2017-01-30T11:38:41.441Z,120
2017-01-30T11:39:46.616Z,120
2017-01-30T11:40:51.817Z,150
2017-01-30T11:41:57.064Z,140
2017-01-30T11:43:03.205Z,125
2017-01-30T11:44:08.404Z,125
2017-01-30T11:45:12.627Z,125
2017-01-30T11:46:17.821Z,125
2017-01-30T11:47:22.083Z,135
2017-01-30T11:48:28.306Z,130
2017-01-30T11:49:32.541Z,165
2017-01-30T11:50:35.772Z,170
2017-01-30T11:51:39.085Z,175
2017-01-30T11:52:44.278Z,170
2017-01-30T11:53:50.449Z,160
2017-01-30T11:54:56.673Z,145
2017-01-30T11:56:01.876Z,145
2017-01-30T11:57:08.047Z,140
2017-01-30T11:58:14.225Z,145
2017-01-30T11:59:19.394Z,160
2017-01-30T12:00:24.599Z,175
2017-01-30T12:01:28.802Z,165
2017-01-30T12:02:33.010Z,190
2017-01-30T12:03:39.187Z,185
2017-01-30T12:04:45.351Z,185
2017-01-30T12:05:51.534Z,155
2017-01-30T12:06:55.761Z,180
2017-01-30T12:08:01.935Z,170
2017-01-30T12:09:08.106Z,145
2017-01-30T12:10:13.312Z,130
2017-01-30T12:11:19.473Z,130
2017-01-30T12:12:25.935Z,145
2017-01-30T12:13:31.053Z,160
2017-01-30T12:14:36.254Z,165
2017-01-30T12:15:42.432Z,155
2017-01-30T12:16:47.680Z,165
2017-01-30T12:17:51.915Z,175
2017-01-30T12:18:56.192Z,160
2017-01-30T12:20:00.437Z,140
2017-01-30T12:21:05.683Z,145
2017-01-30T12:22:08.953Z,140
2017-01-30T12:23:12.413Z,120
2017-01-30T12:24:18.584Z,105
2017-01-30T12:25:24.752Z,80
2017-01-30T12:26:30.993Z,65
2017-01-30T12:27:36.210Z,65
2017-01-30T12:28:40.496Z,65
2017-01-30T12:29:44.740Z,60
2017-01-30T12:30:49.944Z,55
2017-01-30T12:31:55.146Z,65
2017-01-30T12:33:01.319Z,65
2017-01-30T12:34:06.496Z,80
2017-01-30T12:35:11.801Z,100
2017-01-30T12:36:17.012Z,110
2017-01-30T12:37:21.218Z,90
2017-01-30T12:38:26.425Z,100
2017-01-30T12:39:31.653Z,110
2017-01-30T12:40:37.824Z,115
2017-01-30T12:41:41.091Z,125
2017-01-30T12:42:45.293Z,110
2017-01-30T12:43:50.487Z,125
2017-01-30T12:44:56.670Z,125
2017-01-30T12:46:01.908Z,180
2017-01-30T12:47:08.075Z,160
2017-01-30T12:48:13.252Z,140
2017-01-30T12:49:18.434Z,130
2017-01-30T12:50:24.601Z,120
2017-01-30T12:51:29.836Z,115
2017-01-30T12:52:36.069Z,105
2017-01-30T12:53:40.272Z,105
2017-01-30T12:54:45.440Z,85
2017-01-30T12:55:49.677Z,95
2017-01-30T12:56:54.871Z,105
2017-01-30T12:58:00.082Z,130
2017-01-30T12:59:05.282Z,130
2017-01-30T13:00:11.506Z,125
2017-01-30T13:01:14.797Z,190
2017-01-30T13:02:19.048Z,160
2017-01-30T13:03:24.241Z,160
2017-01-30T13:04:30.470Z,150
2017-01-30T13:05:35.671Z,150
2017-01-30T13:06:39.878Z,135
2017-01-30T13:07:44.106Z,120
2017-01-30T13:08:50.283Z,105
2017-01-30T13:09:55.447Z,115
2017-01-30T13:10:58.717Z,95
2017-01-30T13:12:02.960Z,115
2017-01-30T13:13:06.196Z,120
2017-01-30T13:14:10.445Z,110
2017-01-30T13:15:16.578Z,100
2017-01-30T13:16:22.742Z,100
2017-01-30T13:17:26.957Z,95
2017-01-30T13:18:32.168Z,95
2017-01-30T13:19:38.343Z,85
2017-01-30T13:20:43.544Z,85
2017-01-30T13:21:48.724Z,80
2017-01-30T13:22:53.898Z,70
2017-01-30T13:24:00.068Z,55
2017-01-30T13:25:06.236Z,55
2017-01-30T13:26:11.425Z,70
2017-01-30T13:27:17.599Z,65
2017-01-30T13:28:22.804Z,65
2017-01-30T13:29:28.981Z,70
2017-01-30T13:30:35.146Z,75
2017-01-30T13:31:40.342Z,65
2017-01-30T13:32:44.680Z,65
2017-01-30T13:33:50.000Z,70
2017-01-30T13:34:56.171Z,70
2017-01-30T13:36:02.346Z,75
2017-01-30T13:37:08.515Z,70
2017-01-30T13:38:13.714Z,70
2017-01-30T13:39:19.889Z,65
2017-01-30T13:40:25.092Z,65
2017-01-30T13:41:31.272Z,60
2017-01-30T13:42:34.513Z,50
2017-01-30T13:43:40.724Z,40
2017-01-30T13:44:46.853Z,40
2017-01-30T13:45:53.027Z,40
2017-01-30T13:46:59.198Z,45
2017-01-30T13:48:05.368Z,60
2017-01-30T13:49:11.527Z,60
2017-01-30T13:50:16.743Z,60
2017-01-30T13:51:22.902Z,65
2017-01-30T13:52:26.207Z,60
2017-01-30T13:53:31.403Z,60
2017-01-30T13:54:35.669Z,55
2017-01-30T13:55:39.884Z,50
2017-01-30T13:56:45.149Z,50
2017-01-30T13:57:50.342Z,45
2017-01-30T13:58:56.507Z,45
2017-01-30T14:00:00.752Z,45
2017-01-30T14:01:06.934Z,40
2017-01-30T14:02:13.107Z,45
2017-01-30T14:03:16.376Z,40
2017-01-30T14:04:21.571Z,40
2017-01-30T14:05:26.773Z,45
2017-01-30T14:06:30.976Z,40
2017-01-30T14:07:37.144Z,40
2017-01-30T14:08:43.312Z,40
2017-01-30T14:09:49.476Z,40
2017-01-30T14:10:55.660Z,40
2017-01-30T14:11:59.906Z,35
2017-01-30T14:13:06.087Z,35
2017-01-30T14:14:12.332Z,45
2017-01-30T14:15:16.542Z,50
2017-01-30T14:16:21.754Z,40
2017-01-30T14:17:27.908Z,45
2017-01-30T14:18:33.136Z,50
2017-01-30T14:19:37.379Z,65
2017-01-30T14:20:42.596Z,60
2017-01-30T14:21:48.764Z,55
2017-01-30T14:22:53.961Z,65
2017-01-30T14:23:58.171Z,60
2017-01-30T14:25:04.387Z,50
2017-01-30T14:26:09.601Z,55
2017-01-30T14:27:13.815Z,50
2017-01-30T14:28:20.045Z,50
2017-01-30T14:29:24.261Z,50
2017-01-30T14:30:29.436Z,50
2017-01-30T14:31:34.642Z,40
2017-01-30T14:32:40.801Z,45
2017-01-30T14:33:46.064Z,55
2017-01-30T14:34:52.182Z,60
2017-01-30T14:35:57.346Z,55
2017-01-30T14:37:01.607Z,55
2017-01-30T14:38:06.797Z,50
2017-01-30T14:39:12.934Z,50
2017-01-30T14:40:18.108Z,50
2017-01-30T14:41:23.306Z,45
2017-01-30T14:42:28.497Z,45
2017-01-30T14:43:34.662Z,45
2017-01-30T14:44:40.824Z,40
2017-01-30T14:45:46.989Z,45
2017-01-30T14:46:51.232Z,40
2017-01-30T14:47:57.396Z,40
2017-01-30T14:49:02.635Z,35
2017-01-30T14:50:08.773Z,40
2017-01-30T14:51:15.005Z,35
2017-01-30T14:52:21.178Z,35
2017-01-30T14:53:26.387Z,40
2017-01-30T14:54:31.513Z,35
2017-01-30T14:55:36.723Z,40
2017-01-30T14:56:42.032Z,30
2017-01-30T14:57:48.210Z,25
2017-01-30T14:58:53.414Z,25
2017-01-30T14:59:59.579Z,30
2017-01-30T15:01:03.787Z,30
2017-01-30T15:02:09.950Z,35
2017-01-30T15:03:16.140Z,35
2017-01-30T15:04:22.312Z,35
2017-01-30T15:05:28.481Z,30
2017-01-30T15:06:33.683Z,35
2017-01-30T15:07:38.896Z,35
2017-01-30T15:08:44.092Z,35
2017-01-30T15:09:50.265Z,35
2017-01-30T15:10:55.463Z,30
2017-01-30T15:12:01.636Z,30
2017-01-30T15:13:05.882Z,25
2017-01-30T15:14:12.048Z,20
2017-01-30T15:15:18.212Z,25
2017-01-30T15:16:23.463Z,25
2017-01-30T15:17:28.785Z,30
2017-01-30T15:18:33.055Z,25
2017-01-30T15:19:39.183Z,30
2017-01-30T15:20:45.345Z,35
2017-01-30T15:21:51.513Z,35
2017-01-30T15:22:57.683Z,35
2017-01-30T15:24:04.051Z,40
2017-01-30T15:25:10.221Z,35
2017-01-30T15:26:15.426Z,20
2017-01-30T15:27:20.631Z,20
2017-01-30T15:28:25.827Z,20
2017-01-30T15:29:30.059Z,20
2017-01-30T15:30:35.295Z,15
2017-01-30T15:32:47.661Z,10
2017-01-30T15:33:52.855Z,10
2017-01-30T15:34:58.050Z,10
2017-01-30T15:36:03.284Z,10
2017-01-30T15:37:08.451Z,10
2017-01-30T15:38:13.680Z,10
2017-01-30T15:39:17.890Z,10
2017-01-30T15:40:24.075Z,10
2017-01-30T15:41:28.274Z,10
2017-01-30T15:42:32.683Z,10
2017-01-30T15:43:37.882Z,10
2017-01-30T15:44:43.084Z,10
2017-01-30T15:45:49.357Z,5
2017-01-30T15:46:54.564Z,5
2017-01-30T15:47:59.760Z,5
2017-01-30T15:49:04.970Z,5